sensor_id;sensor_type;location;lat;lon;timestamp;P1;durP1;ratioP1;P2;durP2;ratioP2
9102;SDS011;4587;51.434;6.788;2023-05-10T00:02:23;14.20;;;12.73;;
9102;SDS011;4587;51.434;6.788;2023-05-10T00:04:49;13.27;;;11.87;;
9102;SDS011;4587;51.434;6.788;2023-05-10T00:07:15;13.90;;;12.50;;
9102;SDS011;4587;51.434;6.788;2023-05-10T00:09:42;15.03;;;12.73;;
9102;SDS011;4587;51.434;6.788;2023-05-10T00:12:08;16.53;;;12.40;;
9102;SDS011;4587;51.434;6.788;2023-05-10T00:14:34;13.10;;;11.70;;
9102;SDS011;4587;51.434;6.788;2023-05-10T00:17:00;12.63;;;11.53;;
9102;SDS011;4587;51.434;6.788;2023-05-10T00:19:25;11.23;;;10.13;;
9102;SDS011;4587;51.434;6.788;2023-05-10T00:21:51;10.33;;;9.23;;
9102;SDS011;4587;51.434;6.788;2023-05-10T00:24:16;11.73;;;10.63;;
9102;SDS011;4587;51.434;6.788;2023-05-10T00:26:42;10.93;;;9.93;;
9102;SDS011;4587;51.434;6.788;2023-05-10T00:29:08;10.63;;;9.73;;
9102;SDS011;4587;51.434;6.788;2023-05-10T00:31:33;11.07;;;10.07;;
9102;SDS011;4587;51.434;6.788;2023-05-10T00:33:59;11.57;;;10.27;;
9102;SDS011;4587;51.434;6.788;2023-05-10T00:36:24;11.60;;;10.53;;
9102;SDS011;4587;51.434;6.788;2023-05-10T00:38:50;12.27;;;11.17;;
9102;SDS011;4587;51.434;6.788;2023-05-10T00:41:16;11.77;;;10.67;;
9102;SDS011;4587;51.434;6.788;2023-05-10T00:43:42;11.83;;;10.73;;
9102;SDS011;4587;51.434;6.788;2023-05-10T00:46:07;13.17;;;11.77;;
9102;SDS011;4587;51.434;6.788;2023-05-10T00:48:33;11.70;;;10.60;;
9102;SDS011;4587;51.434;6.788;2023-05-10T00:51:00;12.33;;;11.23;;
9102;SDS011;4587;51.434;6.788;2023-05-10T00:53:26;12.07;;;10.97;;
9102;SDS011;4587;51.434;6.788;2023-05-10T00:55:52;12.03;;;10.87;;
9102;SDS011;4587;51.434;6.788;2023-05-10T00:58:18;11.77;;;10.67;;
9102;SDS011;4587;51.434;6.788;2023-05-10T01:00:43;11.63;;;10.53;;
9102;SDS011;4587;51.434;6.788;2023-05-10T01:03:11;12.17;;;11.00;;
9102;SDS011;4587;51.434;6.788;2023-05-10T01:05:37;11.20;;;10.20;;
9102;SDS011;4587;51.434;6.788;2023-05-10T01:08:03;11.67;;;10.57;;
9102;SDS011;4587;51.434;6.788;2023-05-10T01:10:29;11.33;;;10.23;;
9102;SDS011;4587;51.434;6.788;2023-05-10T01:12:56;12.20;;;11.10;;
9102;SDS011;4587;51.434;6.788;2023-05-10T01:15:21;12.80;;;11.50;;
9102;SDS011;4587;51.434;6.788;2023-05-10T01:17:47;12.50;;;11.20;;
9102;SDS011;4587;51.434;6.788;2023-05-10T01:20:13;12.50;;;11.30;;
9102;SDS011;4587;51.434;6.788;2023-05-10T01:25:55;12.80;;;10.20;;
9102;SDS011;4587;51.434;6.788;2023-05-10T01:28:58;11.83;;;10.63;;
9102;SDS011;4587;51.434;6.788;2023-05-10T01:34:51;11.33;;;10.23;;
9102;SDS011;4587;51.434;6.788;2023-05-10T01:37:37;11.37;;;10.27;;
9102;SDS011;4587;51.434;6.788;2023-05-10T01:43:08;11.50;;;10.30;;
9102;SDS011;4587;51.434;6.788;2023-05-10T01:45:47;11.20;;;10.10;;
9102;SDS011;4587;51.434;6.788;2023-05-10T01:48:21;11.00;;;10.00;;
9102;SDS011;4587;51.434;6.788;2023-05-10T01:50:48;13.40;;;10.40;;
9102;SDS011;4587;51.434;6.788;2023-05-10T01:53:17;11.97;;;10.30;;
9102;SDS011;4587;51.434;6.788;2023-05-10T01:55:46;11.13;;;10.03;;
9102;SDS011;4587;51.434;6.788;2023-05-10T01:58:32;11.27;;;10.10;;
9102;SDS011;4587;51.434;6.788;2023-05-10T02:01:01;11.50;;;10.30;;
9102;SDS011;4587;51.434;6.788;2023-05-10T02:03:29;11.63;;;10.43;;
9102;SDS011;4587;51.434;6.788;2023-05-10T02:05:57;13.27;;;11.33;;
9102;SDS011;4587;51.434;6.788;2023-05-10T02:08:24;13.63;;;11.73;;
9102;SDS011;4587;51.434;6.788;2023-05-10T02:10:51;14.13;;;12.73;;
9102;SDS011;4587;51.434;6.788;2023-05-10T02:13:18;15.23;;;13.07;;
9102;SDS011;4587;51.434;6.788;2023-05-10T02:15:46;15.47;;;13.90;;
9102;SDS011;4587;51.434;6.788;2023-05-10T02:18:13;15.57;;;13.90;;
9102;SDS011;4587;51.434;6.788;2023-05-10T02:20:40;16.40;;;14.70;;
9102;SDS011;4587;51.434;6.788;2023-05-10T02:23:08;16.27;;;14.67;;
9102;SDS011;4587;51.434;6.788;2023-05-10T02:25:34;16.00;;;14.13;;
9102;SDS011;4587;51.434;6.788;2023-05-10T02:28:01;17.07;;;15.37;;
9102;SDS011;4587;51.434;6.788;2023-05-10T02:30:30;18.47;;;15.63;;
9102;SDS011;4587;51.434;6.788;2023-05-10T02:32:57;17.03;;;15.07;;
9102;SDS011;4587;51.434;6.788;2023-05-10T02:35:24;19.07;;;17.10;;
9102;SDS011;4587;51.434;6.788;2023-05-10T02:37:51;17.47;;;15.60;;
9102;SDS011;4587;51.434;6.788;2023-05-10T02:40:18;18.73;;;16.53;;
9102;SDS011;4587;51.434;6.788;2023-05-10T02:42:46;20.63;;;17.00;;
9102;SDS011;4587;51.434;6.788;2023-05-10T02:45:15;19.53;;;16.83;;
9102;SDS011;4587;51.434;6.788;2023-05-10T02:47:44;21.67;;;17.03;;
9102;SDS011;4587;51.434;6.788;2023-05-10T02:50:10;17.17;;;15.37;;
9102;SDS011;4587;51.434;6.788;2023-05-10T02:52:59;16.30;;;14.60;;
9102;SDS011;4587;51.434;6.788;2023-05-10T02:55:25;14.40;;;12.93;;
9102;SDS011;4587;51.434;6.788;2023-05-10T02:57:58;15.47;;;13.97;;
9102;SDS011;4587;51.434;6.788;2023-05-10T03:00:25;15.27;;;13.67;;
9102;SDS011;4587;51.434;6.788;2023-05-10T03:02:51;15.37;;;13.77;;
9102;SDS011;4587;51.434;6.788;2023-05-10T03:05:17;14.73;;;13.23;;
9102;SDS011;4587;51.434;6.788;2023-05-10T03:07:43;15.13;;;13.53;;
9102;SDS011;4587;51.434;6.788;2023-05-10T03:10:09;14.37;;;12.87;;
9102;SDS011;4587;51.434;6.788;2023-05-10T03:15:42;13.90;;;12.50;;
9102;SDS011;4587;51.434;6.788;2023-05-10T03:18:22;14.03;;;12.60;;
9102;SDS011;4587;51.434;6.788;2023-05-10T03:21:02;14.10;;;12.73;;
9102;SDS011;4587;51.434;6.788;2023-05-10T03:23:34;13.83;;;12.50;;
9102;SDS011;4587;51.434;6.788;2023-05-10T03:26:04;14.10;;;12.40;;
9102;SDS011;4587;51.434;6.788;2023-05-10T03:28:31;13.77;;;12.27;;
9102;SDS011;4587;51.434;6.788;2023-05-10T03:30:58;14.90;;;13.33;;
9102;SDS011;4587;51.434;6.788;2023-05-10T03:33:24;13.83;;;12.43;;
9102;SDS011;4587;51.434;6.788;2023-05-10T03:35:50;15.43;;;13.73;;
9102;SDS011;4587;51.434;6.788;2023-05-10T03:38:16;15.10;;;13.50;;
9102;SDS011;4587;51.434;6.788;2023-05-10T03:40:41;15.77;;;12.10;;
9102;SDS011;4587;51.434;6.788;2023-05-10T03:43:07;14.97;;;12.93;;
9102;SDS011;4587;51.434;6.788;2023-05-10T03:45:32;15.13;;;13.23;;
9102;SDS011;4587;51.434;6.788;2023-05-10T03:47:58;16.60;;;14.90;;
9102;SDS011;4587;51.434;6.788;2023-05-10T03:50:24;17.60;;;15.00;;
9102;SDS011;4587;51.434;6.788;2023-05-10T03:52:49;17.30;;;15.50;;
9102;SDS011;4587;51.434;6.788;2023-05-10T03:55:15;20.70;;;16.27;;
9102;SDS011;4587;51.434;6.788;2023-05-10T03:57:41;18.57;;;15.13;;
9102;SDS011;4587;51.434;6.788;2023-05-10T04:00:07;19.53;;;16.13;;
9102;SDS011;4587;51.434;6.788;2023-05-10T04:02:33;19.70;;;16.47;;
9102;SDS011;4587;51.434;6.788;2023-05-10T04:04:59;19.47;;;16.57;;
9102;SDS011;4587;51.434;6.788;2023-05-10T04:07:24;18.43;;;15.90;;
9102;SDS011;4587;51.434;6.788;2023-05-10T04:09:50;20.03;;;17.20;;
9102;SDS011;4587;51.434;6.788;2023-05-10T04:12:16;21.73;;;17.43;;
9102;SDS011;4587;51.434;6.788;2023-05-10T04:14:41;18.63;;;16.63;;
9102;SDS011;4587;51.434;6.788;2023-05-10T04:17:07;18.93;;;16.90;;
9102;SDS011;4587;51.434;6.788;2023-05-10T04:19:32;21.03;;;18.70;;
9102;SDS011;4587;51.434;6.788;2023-05-10T04:21:58;22.80;;;18.87;;
9102;SDS011;4587;51.434;6.788;2023-05-10T04:24:24;21.63;;;19.13;;
9102;SDS011;4587;51.434;6.788;2023-05-10T04:26:50;23.10;;;19.57;;
9102;SDS011;4587;51.434;6.788;2023-05-10T04:29:16;21.50;;;18.37;;
9102;SDS011;4587;51.434;6.788;2023-05-10T04:31:41;23.37;;;19.90;;
9102;SDS011;4587;51.434;6.788;2023-05-10T04:34:07;25.70;;;20.67;;
9102;SDS011;4587;51.434;6.788;2023-05-10T04:36:33;24.27;;;20.33;;
9102;SDS011;4587;51.434;6.788;2023-05-10T04:39:00;23.13;;;20.63;;
9102;SDS011;4587;51.434;6.788;2023-05-10T04:41:27;26.93;;;21.10;;
9102;SDS011;4587;51.434;6.788;2023-05-10T04:43:53;26.27;;;21.27;;
9102;SDS011;4587;51.434;6.788;2023-05-10T04:46:19;26.27;;;22.10;;
9102;SDS011;4587;51.434;6.788;2023-05-10T04:48:45;27.93;;;21.30;;
9102;SDS011;4587;51.434;6.788;2023-05-10T04:51:10;29.33;;;24.60;;
9102;SDS011;4587;51.434;6.788;2023-05-10T04:53:36;28.83;;;23.30;;
9102;SDS011;4587;51.434;6.788;2023-05-10T04:56:01;26.83;;;22.63;;
9102;SDS011;4587;51.434;6.788;2023-05-10T04:58:27;29.83;;;24.40;;
9102;SDS011;4587;51.434;6.788;2023-05-10T05:00:53;30.57;;;24.13;;
9102;SDS011;4587;51.434;6.788;2023-05-10T05:03:18;28.37;;;23.87;;
9102;SDS011;4587;51.434;6.788;2023-05-10T05:05:44;33.00;;;24.47;;
9102;SDS011;4587;51.434;6.788;2023-05-10T05:08:09;32.07;;;25.43;;
9102;SDS011;4587;51.434;6.788;2023-05-10T05:10:35;32.07;;;25.47;;
9102;SDS011;4587;51.434;6.788;2023-05-10T05:13:00;30.17;;;24.83;;
9102;SDS011;4587;51.434;6.788;2023-05-10T05:15:26;32.27;;;25.90;;
9102;SDS011;4587;51.434;6.788;2023-05-10T05:17:52;34.70;;;26.37;;
9102;SDS011;4587;51.434;6.788;2023-05-10T05:20:18;30.87;;;23.97;;
9102;SDS011;4587;51.434;6.788;2023-05-10T05:22:44;32.33;;;27.20;;
9102;SDS011;4587;51.434;6.788;2023-05-10T05:25:09;33.47;;;26.00;;
9102;SDS011;4587;51.434;6.788;2023-05-10T05:27:36;34.13;;;27.83;;
9102;SDS011;4587;51.434;6.788;2023-05-10T05:30:02;33.50;;;26.47;;
9102;SDS011;4587;51.434;6.788;2023-05-10T05:32:28;36.93;;;26.67;;
9102;SDS011;4587;51.434;6.788;2023-05-10T05:34:53;36.30;;;27.93;;
9102;SDS011;4587;51.434;6.788;2023-05-10T05:37:20;31.77;;;26.60;;
9102;SDS011;4587;51.434;6.788;2023-05-10T05:39:46;37.53;;;27.80;;
9102;SDS011;4587;51.434;6.788;2023-05-10T05:42:12;32.07;;;24.87;;
9102;SDS011;4587;51.434;6.788;2023-05-10T05:44:38;32.70;;;26.27;;
9102;SDS011;4587;51.434;6.788;2023-05-10T05:47:04;34.50;;;26.63;;
9102;SDS011;4587;51.434;6.788;2023-05-10T05:49:30;31.53;;;25.53;;
9102;SDS011;4587;51.434;6.788;2023-05-10T05:51:59;28.50;;;25.33;;
9102;SDS011;4587;51.434;6.788;2023-05-10T05:54:28;31.80;;;25.53;;
9102;SDS011;4587;51.434;6.788;2023-05-10T05:56:55;29.37;;;25.43;;
9102;SDS011;4587;51.434;6.788;2023-05-10T05:59:24;31.87;;;26.27;;
9102;SDS011;4587;51.434;6.788;2023-05-10T06:01:50;33.53;;;26.33;;
9102;SDS011;4587;51.434;6.788;2023-05-10T06:04:16;37.10;;;27.90;;
9102;SDS011;4587;51.434;6.788;2023-05-10T06:06:42;39.03;;;29.90;;
9102;SDS011;4587;51.434;6.788;2023-05-10T06:09:08;39.20;;;28.97;;
9102;SDS011;4587;51.434;6.788;2023-05-10T06:11:34;40.13;;;29.47;;
9102;SDS011;4587;51.434;6.788;2023-05-10T06:14:01;39.40;;;29.17;;
9102;SDS011;4587;51.434;6.788;2023-05-10T06:16:27;40.87;;;29.47;;
9102;SDS011;4587;51.434;6.788;2023-05-10T06:18:53;38.00;;;29.27;;
9102;SDS011;4587;51.434;6.788;2023-05-10T06:21:18;39.50;;;29.70;;
9102;SDS011;4587;51.434;6.788;2023-05-10T06:23:44;40.33;;;29.00;;
9102;SDS011;4587;51.434;6.788;2023-05-10T06:26:10;40.83;;;29.67;;
9102;SDS011;4587;51.434;6.788;2023-05-10T06:28:35;41.57;;;30.60;;
9102;SDS011;4587;51.434;6.788;2023-05-10T06:31:04;43.33;;;30.37;;
9102;SDS011;4587;51.434;6.788;2023-05-10T06:33:29;43.07;;;30.50;;
9102;SDS011;4587;51.434;6.788;2023-05-10T06:35:56;44.40;;;31.10;;
9102;SDS011;4587;51.434;6.788;2023-05-10T06:38:22;45.47;;;30.40;;
9102;SDS011;4587;51.434;6.788;2023-05-10T06:40:47;46.73;;;32.23;;
9102;SDS011;4587;51.434;6.788;2023-05-10T06:43:13;44.53;;;31.73;;
9102;SDS011;4587;51.434;6.788;2023-05-10T06:45:39;44.40;;;30.83;;
9102;SDS011;4587;51.434;6.788;2023-05-10T06:48:05;44.53;;;30.83;;
9102;SDS011;4587;51.434;6.788;2023-05-10T06:50:35;43.20;;;31.20;;
9102;SDS011;4587;51.434;6.788;2023-05-10T06:53:01;43.57;;;29.70;;
9102;SDS011;4587;51.434;6.788;2023-05-10T06:55:26;40.53;;;29.23;;
9102;SDS011;4587;51.434;6.788;2023-05-10T06:57:52;42.87;;;29.77;;
9102;SDS011;4587;51.434;6.788;2023-05-10T07:00:18;40.17;;;28.93;;
9102;SDS011;4587;51.434;6.788;2023-05-10T07:02:44;38.63;;;28.70;;
9102;SDS011;4587;51.434;6.788;2023-05-10T07:05:10;43.27;;;30.47;;
9102;SDS011;4587;51.434;6.788;2023-05-10T07:07:36;39.93;;;28.90;;
9102;SDS011;4587;51.434;6.788;2023-05-10T07:10:02;42.77;;;30.40;;
9102;SDS011;4587;51.434;6.788;2023-05-10T07:12:27;42.37;;;29.60;;
9102;SDS011;4587;51.434;6.788;2023-05-10T07:14:53;38.97;;;27.77;;
9102;SDS011;4587;51.434;6.788;2023-05-10T07:17:19;42.13;;;29.13;;
9102;SDS011;4587;51.434;6.788;2023-05-10T07:19:45;38.17;;;28.00;;
9102;SDS011;4587;51.434;6.788;2023-05-10T07:22:10;41.63;;;28.47;;
9102;SDS011;4587;51.434;6.788;2023-05-10T07:24:36;41.50;;;28.00;;
9102;SDS011;4587;51.434;6.788;2023-05-10T07:27:02;39.20;;;28.00;;
9102;SDS011;4587;51.434;6.788;2023-05-10T07:29:27;34.37;;;25.63;;
9102;SDS011;4587;51.434;6.788;2023-05-10T07:31:53;36.67;;;25.13;;
9102;SDS011;4587;51.434;6.788;2023-05-10T07:34:19;35.87;;;25.17;;
9102;SDS011;4587;51.434;6.788;2023-05-10T07:36:44;33.83;;;24.53;;
9102;SDS011;4587;51.434;6.788;2023-05-10T07:39:10;37.00;;;25.70;;
9102;SDS011;4587;51.434;6.788;2023-05-10T07:41:35;35.27;;;24.93;;
9102;SDS011;4587;51.434;6.788;2023-05-10T07:44:02;33.57;;;23.63;;
9102;SDS011;4587;51.434;6.788;2023-05-10T07:46:28;31.77;;;22.83;;
9102;SDS011;4587;51.434;6.788;2023-05-10T07:48:54;29.83;;;21.43;;
9102;SDS011;4587;51.434;6.788;2023-05-10T07:51:20;30.57;;;22.60;;
9102;SDS011;4587;51.434;6.788;2023-05-10T07:53:46;28.07;;;20.40;;
9102;SDS011;4587;51.434;6.788;2023-05-10T07:56:22;25.30;;;19.83;;
9102;SDS011;4587;51.434;6.788;2023-05-10T07:58:48;26.33;;;20.87;;
9102;SDS011;4587;51.434;6.788;2023-05-10T08:01:13;26.30;;;20.27;;
9102;SDS011;4587;51.434;6.788;2023-05-10T08:03:39;27.57;;;19.57;;
9102;SDS011;4587;51.434;6.788;2023-05-10T08:06:05;28.07;;;21.53;;
9102;SDS011;4587;51.434;6.788;2023-05-10T08:08:30;32.17;;;22.50;;
9102;SDS011;4587;51.434;6.788;2023-05-10T08:10:56;29.87;;;22.77;;
9102;SDS011;4587;51.434;6.788;2023-05-10T08:13:21;34.07;;;24.53;;
9102;SDS011;4587;51.434;6.788;2023-05-10T08:15:47;35.47;;;24.90;;
9102;SDS011;4587;51.434;6.788;2023-05-10T08:18:13;35.47;;;25.73;;
9102;SDS011;4587;51.434;6.788;2023-05-10T08:20:39;34.90;;;25.53;;
9102;SDS011;4587;51.434;6.788;2023-05-10T08:23:04;38.37;;;25.83;;
9102;SDS011;4587;51.434;6.788;2023-05-10T08:25:30;34.60;;;25.70;;
9102;SDS011;4587;51.434;6.788;2023-05-10T08:27:56;36.37;;;26.03;;
9102;SDS011;4587;51.434;6.788;2023-05-10T08:30:22;35.40;;;24.20;;
9102;SDS011;4587;51.434;6.788;2023-05-10T08:32:47;29.23;;;23.43;;
9102;SDS011;4587;51.434;6.788;2023-05-10T08:35:13;31.47;;;23.13;;
9102;SDS011;4587;51.434;6.788;2023-05-10T08:37:38;30.37;;;22.33;;
9102;SDS011;4587;51.434;6.788;2023-05-10T08:40:04;29.77;;;23.00;;
9102;SDS011;4587;51.434;6.788;2023-05-10T08:42:30;29.90;;;22.63;;
9102;SDS011;4587;51.434;6.788;2023-05-10T08:45:01;26.27;;;21.50;;
9102;SDS011;4587;51.434;6.788;2023-05-10T08:47:28;30.97;;;23.10;;
9102;SDS011;4587;51.434;6.788;2023-05-10T08:49:54;31.93;;;22.57;;
9102;SDS011;4587;51.434;6.788;2023-05-10T08:52:21;31.87;;;22.93;;
9102;SDS011;4587;51.434;6.788;2023-05-10T08:54:49;27.63;;;22.57;;
9102;SDS011;4587;51.434;6.788;2023-05-10T08:57:15;26.43;;;20.93;;
9102;SDS011;4587;51.434;6.788;2023-05-10T08:59:40;27.37;;;21.30;;
9102;SDS011;4587;51.434;6.788;2023-05-10T09:02:06;30.00;;;23.10;;
9102;SDS011;4587;51.434;6.788;2023-05-10T09:04:35;28.13;;;21.77;;
9102;SDS011;4587;51.434;6.788;2023-05-10T09:07:00;25.33;;;20.27;;
9102;SDS011;4587;51.434;6.788;2023-05-10T09:09:26;26.47;;;20.93;;
9102;SDS011;4587;51.434;6.788;2023-05-10T09:11:53;27.93;;;20.80;;
9102;SDS011;4587;51.434;6.788;2023-05-10T09:14:19;26.13;;;19.63;;
9102;SDS011;4587;51.434;6.788;2023-05-10T09:16:45;23.70;;;18.90;;
9102;SDS011;4587;51.434;6.788;2023-05-10T09:19:11;25.17;;;19.40;;
9102;SDS011;4587;51.434;6.788;2023-05-10T09:21:37;22.93;;;18.33;;
9102;SDS011;4587;51.434;6.788;2023-05-10T09:24:06;27.50;;;19.60;;
9102;SDS011;4587;51.434;6.788;2023-05-10T09:26:33;24.50;;;19.23;;
9102;SDS011;4587;51.434;6.788;2023-05-10T09:29:00;21.73;;;17.00;;
9102;SDS011;4587;51.434;6.788;2023-05-10T09:32:10;22.33;;;17.10;;
9102;SDS011;4587;51.434;6.788;2023-05-10T09:34:18;20.37;;;16.90;;
9102;SDS011;4587;51.434;6.788;2023-05-10T09:36:55;19.70;;;16.70;;
9102;SDS011;4587;51.434;6.788;2023-05-10T09:39:35;20.70;;;17.17;;
9102;SDS011;4587;51.434;6.788;2023-05-10T09:42:05;20.83;;;16.90;;
9102;SDS011;4587;51.434;6.788;2023-05-10T09:44:32;18.10;;;15.87;;
9102;SDS011;4587;51.434;6.788;2023-05-10T09:46:58;20.33;;;17.53;;
9102;SDS011;4587;51.434;6.788;2023-05-10T09:49:25;18.37;;;16.40;;
9102;SDS011;4587;51.434;6.788;2023-05-10T09:51:59;18.47;;;15.50;;
9102;SDS011;4587;51.434;6.788;2023-05-10T09:54:24;18.27;;;15.13;;
9102;SDS011;4587;51.434;6.788;2023-05-10T09:56:50;21.00;;;16.43;;
9102;SDS011;4587;51.434;6.788;2023-05-10T09:59:16;24.23;;;17.10;;
9102;SDS011;4587;51.434;6.788;2023-05-10T10:01:41;21.00;;;16.83;;
9102;SDS011;4587;51.434;6.788;2023-05-10T10:04:13;20.00;;;17.43;;
9102;SDS011;4587;51.434;6.788;2023-05-10T10:06:40;24.47;;;18.23;;
9102;SDS011;4587;51.434;6.788;2023-05-10T10:09:06;21.40;;;17.27;;
9102;SDS011;4587;51.434;6.788;2023-05-10T10:11:34;19.53;;;16.97;;
9102;SDS011;4587;51.434;6.788;2023-05-10T10:14:00;19.90;;;16.43;;
9102;SDS011;4587;51.434;6.788;2023-05-10T10:16:27;19.67;;;15.87;;
9102;SDS011;4587;51.434;6.788;2023-05-10T10:18:54;18.47;;;14.33;;
9102;SDS011;4587;51.434;6.788;2023-05-10T10:21:20;20.40;;;15.43;;
9102;SDS011;4587;51.434;6.788;2023-05-10T10:23:47;20.07;;;16.00;;
9102;SDS011;4587;51.434;6.788;2023-05-10T10:26:12;18.20;;;15.03;;
9102;SDS011;4587;51.434;6.788;2023-05-10T10:28:51;18.93;;;15.87;;
9102;SDS011;4587;51.434;6.788;2023-05-10T10:36:53;18.87;;;15.87;;
9102;SDS011;4587;51.434;6.788;2023-05-10T10:39:20;17.60;;;15.70;;
9102;SDS011;4587;51.434;6.788;2023-05-10T10:41:50;36.63;;;24.20;;
9102;SDS011;4587;51.434;6.788;2023-05-10T10:52:20;20.23;;;16.30;;
9102;SDS011;4587;51.434;6.788;2023-05-10T10:54:52;19.33;;;16.57;;
9102;SDS011;4587;51.434;6.788;2023-05-10T10:57:31;19.40;;;15.50;;
9102;SDS011;4587;51.434;6.788;2023-05-10T11:03:05;20.67;;;17.90;;
9102;SDS011;4587;51.434;6.788;2023-05-10T11:05:37;20.63;;;18.43;;
9102;SDS011;4587;51.434;6.788;2023-05-10T11:08:17;22.93;;;19.23;;
9102;SDS011;4587;51.434;6.788;2023-05-10T11:13:28;20.87;;;17.30;;
9102;SDS011;4587;51.434;6.788;2023-05-10T11:16:11;20.00;;;17.60;;
9102;SDS011;4587;51.434;6.788;2023-05-10T11:18:52;22.03;;;18.20;;
9102;SDS011;4587;51.434;6.788;2023-05-10T11:21:26;22.10;;;16.90;;
9102;SDS011;4587;51.434;6.788;2023-05-10T11:23:53;21.13;;;17.10;;
9102;SDS011;4587;51.434;6.788;2023-05-10T11:26:30;18.60;;;16.00;;
9102;SDS011;4587;51.434;6.788;2023-05-10T11:28:58;17.50;;;15.60;;
9102;SDS011;4587;51.434;6.788;2023-05-10T11:31:26;16.10;;;14.20;;
9102;SDS011;4587;51.434;6.788;2023-05-10T11:33:54;18.97;;;14.80;;
9102;SDS011;4587;51.434;6.788;2023-05-10T11:36:25;14.37;;;12.97;;
9102;SDS011;4587;51.434;6.788;2023-05-10T11:38:52;14.60;;;12.13;;
9102;SDS011;4587;51.434;6.788;2023-05-10T11:41:19;15.93;;;12.53;;
9102;SDS011;4587;51.434;6.788;2023-05-10T11:43:51;13.23;;;12.00;;
9102;SDS011;4587;51.434;6.788;2023-05-10T11:46:18;14.80;;;11.63;;
9102;SDS011;4587;51.434;6.788;2023-05-10T11:48:48;14.03;;;11.33;;
9102;SDS011;4587;51.434;6.788;2023-05-10T11:51:19;12.47;;;11.17;;
9102;SDS011;4587;51.434;6.788;2023-05-10T11:53:49;13.93;;;10.90;;
9102;SDS011;4587;51.434;6.788;2023-05-10T11:56:15;11.40;;;9.00;;
9102;SDS011;4587;51.434;6.788;2023-05-10T11:58:41;8.20;;;7.40;;
9102;SDS011;4587;51.434;6.788;2023-05-10T12:01:07;8.50;;;7.60;;
9102;SDS011;4587;51.434;6.788;2023-05-10T12:03:35;8.60;;;7.30;;
9102;SDS011;4587;51.434;6.788;2023-05-10T12:06:01;8.80;;;7.70;;
9102;SDS011;4587;51.434;6.788;2023-05-10T12:08:29;9.53;;;6.97;;
9102;SDS011;4587;51.434;6.788;2023-05-10T12:11:08;8.20;;;7.23;;
9102;SDS011;4587;51.434;6.788;2023-05-10T12:13:39;8.93;;;7.00;;
9102;SDS011;4587;51.434;6.788;2023-05-10T12:16:12;8.57;;;6.23;;
9102;SDS011;4587;51.434;6.788;2023-05-10T12:18:40;8.40;;;6.20;;
9102;SDS011;4587;51.434;6.788;2023-05-10T12:21:07;8.07;;;7.00;;
9102;SDS011;4587;51.434;6.788;2023-05-10T12:23:35;8.70;;;6.50;;
9102;SDS011;4587;51.434;6.788;2023-05-10T12:26:04;8.00;;;6.20;;
9102;SDS011;4587;51.434;6.788;2023-05-10T12:28:30;7.63;;;6.37;;
9102;SDS011;4587;51.434;6.788;2023-05-10T12:30:57;6.57;;;5.77;;
9102;SDS011;4587;51.434;6.788;2023-05-10T12:33:24;9.93;;;6.63;;
9102;SDS011;4587;51.434;6.788;2023-05-10T12:35:51;7.23;;;6.20;;
9102;SDS011;4587;51.434;6.788;2023-05-10T12:41:01;7.27;;;6.47;;
9102;SDS011;4587;51.434;6.788;2023-05-10T12:43:28;6.50;;;5.80;;
9102;SDS011;4587;51.434;6.788;2023-05-10T12:45:54;7.47;;;6.00;;
9102;SDS011;4587;51.434;6.788;2023-05-10T12:48:20;9.37;;;5.80;;
9102;SDS011;4587;51.434;6.788;2023-05-10T12:50:46;7.60;;;6.80;;
9102;SDS011;4587;51.434;6.788;2023-05-10T12:53:15;6.23;;;5.50;;
9102;SDS011;4587;51.434;6.788;2023-05-10T12:55:44;6.27;;;5.50;;
9102;SDS011;4587;51.434;6.788;2023-05-10T12:58:09;8.23;;;5.53;;
9102;SDS011;4587;51.434;6.788;2023-05-10T13:00:35;7.30;;;5.30;;
9102;SDS011;4587;51.434;6.788;2023-05-10T13:03:03;6.67;;;5.27;;
9102;SDS011;4587;51.434;6.788;2023-05-10T13:05:30;6.07;;;5.50;;
9102;SDS011;4587;51.434;6.788;2023-05-10T13:07:57;6.77;;;5.70;;
9102;SDS011;4587;51.434;6.788;2023-05-10T13:10:22;7.10;;;5.43;;
9102;SDS011;4587;51.434;6.788;2023-05-10T13:12:48;7.57;;;6.17;;
9102;SDS011;4587;51.434;6.788;2023-05-10T13:15:14;7.77;;;6.40;;
9102;SDS011;4587;51.434;6.788;2023-05-10T13:17:40;7.10;;;6.40;;
9102;SDS011;4587;51.434;6.788;2023-05-10T13:20:07;7.47;;;6.17;;
9102;SDS011;4587;51.434;6.788;2023-05-10T13:22:34;6.50;;;5.50;;
9102;SDS011;4587;51.434;6.788;2023-05-10T13:25:00;8.07;;;5.70;;
9102;SDS011;4587;51.434;6.788;2023-05-10T13:27:26;6.97;;;5.90;;
9102;SDS011;4587;51.434;6.788;2023-05-10T13:29:51;7.07;;;5.70;;
9102;SDS011;4587;51.434;6.788;2023-05-10T13:32:17;6.93;;;5.97;;
9102;SDS011;4587;51.434;6.788;2023-05-10T13:34:42;8.77;;;5.73;;
9102;SDS011;4587;51.434;6.788;2023-05-10T13:37:08;8.43;;;6.53;;
9102;SDS011;4587;51.434;6.788;2023-05-10T13:39:34;7.60;;;6.80;;
9102;SDS011;4587;51.434;6.788;2023-05-10T13:41:59;7.47;;;5.60;;
9102;SDS011;4587;51.434;6.788;2023-05-10T13:44:25;8.57;;;6.57;;
9102;SDS011;4587;51.434;6.788;2023-05-10T13:46:51;8.83;;;7.93;;
9102;SDS011;4587;51.434;6.788;2023-05-10T13:49:16;10.00;;;7.10;;
9102;SDS011;4587;51.434;6.788;2023-05-10T13:51:42;7.20;;;6.50;;
9102;SDS011;4587;51.434;6.788;2023-05-10T13:54:08;7.73;;;6.93;;
9102;SDS011;4587;51.434;6.788;2023-05-10T13:56:34;9.87;;;6.73;;
9102;SDS011;4587;51.434;6.788;2023-05-10T13:58:59;7.80;;;7.00;;
9102;SDS011;4587;51.434;6.788;2023-05-10T14:01:25;9.83;;;8.50;;
9102;SDS011;4587;51.434;6.788;2023-05-10T14:03:51;9.83;;;7.90;;
9102;SDS011;4587;51.434;6.788;2023-05-10T14:06:16;8.90;;;8.07;;
9102;SDS011;4587;51.434;6.788;2023-05-10T14:08:42;8.50;;;7.70;;
9102;SDS011;4587;51.434;6.788;2023-05-10T14:11:08;8.50;;;7.60;;
9102;SDS011;4587;51.434;6.788;2023-05-10T14:13:33;9.73;;;7.63;;
9102;SDS011;4587;51.434;6.788;2023-05-10T14:15:59;9.23;;;8.23;;
9102;SDS011;4587;51.434;6.788;2023-05-10T14:18:26;7.83;;;7.03;;
9102;SDS011;4587;51.434;6.788;2023-05-10T14:20:51;8.77;;;7.87;;
9102;SDS011;4587;51.434;6.788;2023-05-10T14:23:17;10.13;;;8.77;;
9102;SDS011;4587;51.434;6.788;2023-05-10T14:25:45;10.13;;;8.53;;
9102;SDS011;4587;51.434;6.788;2023-05-10T14:28:10;8.83;;;7.43;;
9102;SDS011;4587;51.434;6.788;2023-05-10T14:30:37;7.47;;;6.70;;
9102;SDS011;4587;51.434;6.788;2023-05-10T14:33:02;9.20;;;7.50;;
9102;SDS011;4587;51.434;6.788;2023-05-10T14:35:28;8.87;;;7.97;;
9102;SDS011;4587;51.434;6.788;2023-05-10T14:37:55;8.73;;;7.80;;
9102;SDS011;4587;51.434;6.788;2023-05-10T14:40:21;9.20;;;7.90;;
9102;SDS011;4587;51.434;6.788;2023-05-10T14:42:47;8.70;;;7.70;;
9102;SDS011;4587;51.434;6.788;2023-05-10T14:45:13;7.57;;;6.93;;
9102;SDS011;4587;51.434;6.788;2023-05-10T14:47:39;8.63;;;7.73;;
9102;SDS011;4587;51.434;6.788;2023-05-10T14:50:04;8.80;;;8.00;;
9102;SDS011;4587;51.434;6.788;2023-05-10T14:52:30;9.50;;;8.17;;
9102;SDS011;4587;51.434;6.788;2023-05-10T14:54:56;9.43;;;8.20;;
9102;SDS011;4587;51.434;6.788;2023-05-10T14:57:23;9.67;;;8.63;;
9102;SDS011;4587;51.434;6.788;2023-05-10T14:59:49;12.30;;;9.30;;
9102;SDS011;4587;51.434;6.788;2023-05-10T15:02:15;11.73;;;10.53;;
9102;SDS011;4587;51.434;6.788;2023-05-10T15:04:41;11.80;;;10.70;;
9102;SDS011;4587;51.434;6.788;2023-05-10T15:07:06;13.73;;;12.20;;
9102;SDS011;4587;51.434;6.788;2023-05-10T15:09:32;13.00;;;11.57;;
9102;SDS011;4587;51.434;6.788;2023-05-10T15:11:57;14.07;;;12.30;;
9102;SDS011;4587;51.434;6.788;2023-05-10T15:14:23;14.10;;;12.70;;
9102;SDS011;4587;51.434;6.788;2023-05-10T15:16:48;14.03;;;12.33;;
9102;SDS011;4587;51.434;6.788;2023-05-10T15:19:14;16.17;;;14.57;;
9102;SDS011;4587;51.434;6.788;2023-05-10T15:21:40;14.93;;;13.43;;
9102;SDS011;4587;51.434;6.788;2023-05-10T15:24:08;15.63;;;14.13;;
9102;SDS011;4587;51.434;6.788;2023-05-10T15:26:34;15.23;;;13.63;;
9102;SDS011;4587;51.434;6.788;2023-05-10T15:29:00;16.67;;;14.73;;